sensor_id;sensor_type;location;lat;lon;timestamp;pressure;altitude;pressure_sealevel;temperature;humidity
79085;BME280;68486;42.808;23.422;2023-12-29T00:00:00;32272.22;;;-145.14;100.00
79085;BME280;68486;42.808;23.422;2023-12-29T00:02:25;32236.47;;;-145.14;100.00
79085;BME280;68486;42.808;23.422;2023-12-29T00:04:51;32035.94;;;-145.14;100.00
79085;BME280;68486;42.808;23.422;2023-12-29T00:07:16;32885.78;;;-145.14;100.00
79085;BME280;68486;42.808;23.422;2023-12-29T00:09:41;33423.97;;;-145.14;100.00
79085;BME280;68486;42.808;23.422;2023-12-29T00:12:07;33827.19;;;-145.14;100.00
79085;BME280;68486;42.808;23.422;2023-12-29T00:14:33;34043.69;;;-145.14;100.00
79085;BME280;68486;42.808;23.422;2023-12-29T00:16:59;33038.69;;;-145.14;100.00
79085;BME280;68486;42.808;23.422;2023-12-29T00:19:25;33018.84;;;-145.14;100.00
79085;BME280;68486;42.808;23.422;2023-12-29T00:21:50;33717.94;;;-145.14;100.00
79085;BME280;68486;42.808;23.422;2023-12-29T00:24:15;33578.91;;;-145.14;100.00
79085;BME280;68486;42.808;23.422;2023-12-29T00:26:42;33177.72;;;-145.14;100.00
79085;BME280;68486;42.808;23.422;2023-12-29T00:29:07;32822.25;;;-145.14;100.00
79085;BME280;68486;42.808;23.422;2023-12-29T00:31:33;33175.72;;;-145.14;100.00
79085;BME280;68486;42.808;23.422;2023-12-29T00:33:58;33741.78;;;-145.14;100.00
79085;BME280;68486;42.808;23.422;2023-12-29T00:36:24;33856.97;;;-145.14;100.00
79085;BME280;68486;42.808;23.422;2023-12-29T00:38:49;33729.84;;;-145.14;100.00
79085;BME280;68486;42.808;23.422;2023-12-29T00:41:15;32887.78;;;-145.14;100.00
79085;BME280;68486;42.808;23.422;2023-12-29T00:43:40;33290.91;;;-145.14;100.00
79085;BME280;68486;42.808;23.422;2023-12-29T00:46:05;34003.97;;;-145.14;100.00
79085;BME280;68486;42.808;23.422;2023-12-29T00:48:32;34131.09;;;-145.14;100.00
79085;BME280;68486;42.808;23.422;2023-12-29T00:50:57;33841.09;;;-145.14;100.00
79085;BME280;68486;42.808;23.422;2023-12-29T00:53:22;33996.03;;;-145.14;100.00
79085;BME280;68486;42.808;23.422;2023-12-29T00:55:48;34292.00;;;-145.14;100.00
79085;BME280;68486;42.808;23.422;2023-12-29T00:58:13;34345.63;;;-145.14;100.00
79085;BME280;68486;42.808;23.422;2023-12-29T01:00:39;34790.66;;;-145.14;100.00
79085;BME280;68486;42.808;23.422;2023-12-29T01:03:04;35770.25;;;-145.14;100.00
79085;BME280;68486;42.808;23.422;2023-12-29T01:05:30;37046.31;;;-145.14;100.00
79085;BME280;68486;42.808;23.422;2023-12-29T01:07:55;38348.63;;;-145.14;100.00
79085;BME280;68486;42.808;23.422;2023-12-29T01:10:21;39581.75;;;-145.14;100.00
79085;BME280;68486;42.808;23.422;2023-12-29T01:12:46;40954.53;;;-145.14;100.00
79085;BME280;68486;42.808;23.422;2023-12-29T01:15:13;42027.25;;;-145.14;100.00
79085;BME280;68486;42.808;23.422;2023-12-29T01:17:38;42897.16;;;-145.14;100.00
79085;BME280;68486;42.808;23.422;2023-12-29T01:20:04;43522.34;;;-145.14;100.00
79085;BME280;68486;42.808;23.422;2023-12-29T01:22:30;43703.56;;;-145.14;100.00
79085;BME280;68486;42.808;23.422;2023-12-29T01:24:55;43938.53;;;-145.14;100.00
79085;BME280;68486;42.808;23.422;2023-12-29T01:27:21;44195.44;;;-145.14;100.00
79085;BME280;68486;42.808;23.422;2023-12-29T01:29:46;42341.75;;;-145.14;100.00
79085;BME280;68486;42.808;23.422;2023-12-29T01:32:12;42594.56;;;-145.14;100.00
79085;BME280;68486;42.808;23.422;2023-12-29T01:34:37;41456.03;;;-145.14;100.00
79085;BME280;68486;42.808;23.422;2023-12-29T01:37:03;41408.25;;;-145.14;100.00
79085;BME280;68486;42.808;23.422;2023-12-29T01:39:29;40962.50;;;-145.14;100.00
79085;BME280;68486;42.808;23.422;2023-12-29T01:41:55;40486.94;;;-145.14;100.00
79085;BME280;68486;42.808;23.422;2023-12-29T01:44:22;39810.50;;;-145.14;100.00
79085;BME280;68486;42.808;23.422;2023-12-29T01:46:49;39221.69;;;-145.14;100.00
79085;BME280;68486;42.808;23.422;2023-12-29T01:49:16;38706.59;;;-145.14;100.00
79085;BME280;68486;42.808;23.422;2023-12-29T01:51:44;38404.28;;;-145.14;100.00
79085;BME280;68486;42.808;23.422;2023-12-29T01:54:10;38404.28;;;-145.14;100.00
79085;BME280;68486;42.808;23.422;2023-12-29T01:56:37;38583.28;;;-145.14;100.00
79085;BME280;68486;42.808;23.422;2023-12-29T01:59:03;38662.81;;;-145.14;100.00
79085;BME280;68486;42.808;23.422;2023-12-29T02:01:29;37855.47;;;-145.14;100.00
79085;BME280;68486;42.808;23.422;2023-12-29T02:03:54;37360.41;;;-145.14;100.00
79085;BME280;68486;42.808;23.422;2023-12-29T02:06:21;36801.81;;;-145.14;100.00
79085;BME280;68486;42.808;23.422;2023-12-29T02:08:47;36080.28;;;-145.14;100.00
79085;BME280;68486;42.808;23.422;2023-12-29T02:11:13;35690.78;;;-145.14;100.00
79085;BME280;68486;42.808;23.422;2023-12-29T02:13:39;34683.38;;;-145.14;100.00
79085;BME280;68486;42.808;23.422;2023-12-29T02:16:10;34001.97;;;-145.14;100.00
79085;BME280;68486;42.808;23.422;2023-12-29T02:18:38;33213.47;;;-145.14;100.00
79085;BME280;68486;42.808;23.422;2023-12-29T02:21:05;32991.03;;;-145.14;100.00
79085;BME280;68486;42.808;23.422;2023-12-29T02:23:31;32828.19;;;-145.14;100.00
79085;BME280;68486;42.808;23.422;2023-12-29T02:26:02;32379.44;;;-145.14;100.00
79085;BME280;68486;42.808;23.422;2023-12-29T02:28:34;31708.38;;;-145.14;100.00
79085;BME280;68486;42.808;23.422;2023-12-29T02:31:16;31339.13;;;-145.14;100.00
79085;BME280;68486;42.808;23.422;2023-12-29T02:33:45;30819.09;;;-145.14;100.00
79085;BME280;68486;42.808;23.422;2023-12-29T02:36:12;30888.56;;;-145.14;100.00
79085;BME280;68486;42.808;23.422;2023-12-29T02:38:39;31176.38;;;-145.14;100.00
79085;BME280;68486;42.808;23.422;2023-12-29T02:41:04;31410.59;;;-145.14;100.00
79085;BME280;68486;42.808;23.422;2023-12-29T02:43:33;31934.69;;;-145.14;100.00
79085;BME280;68486;42.808;23.422;2023-12-29T02:45:58;32252.34;;;-145.14;100.00
79085;BME280;68486;42.808;23.422;2023-12-29T02:48:24;31867.19;;;-145.14;100.00
79085;BME280;68486;42.808;23.422;2023-12-29T02:50:49;31486.03;;;-145.14;100.00
79085;BME280;68486;42.808;23.422;2023-12-29T02:53:15;31630.94;;;-145.14;100.00
79085;BME280;68486;42.808;23.422;2023-12-29T02:55:40;31575.38;;;-145.14;100.00
79085;BME280;68486;42.808;23.422;2023-12-29T02:58:06;31444.34;;;-145.14;100.00
79085;BME280;68486;42.808;23.422;2023-12-29T03:00:32;31144.59;;;-145.14;100.00
79085;BME280;68486;42.808;23.422;2023-12-29T03:02:58;30239.56;;;-145.14;100.00
79085;BME280;68486;42.808;23.422;2023-12-29T03:05:23;29509.34;;;-145.14;100.00
79085;BME280;68486;42.808;23.422;2023-12-29T03:07:49;28057.25;;;-145.14;100.00
79085;BME280;68486;42.808;23.422;2023-12-29T03:10:14;27549.53;;;-145.14;100.00
79085;BME280;68486;42.808;23.422;2023-12-29T03:12:40;27018.09;;;-145.14;100.00
79085;BME280;68486;42.808;23.422;2023-12-29T03:15:05;26700.88;;;-145.14;100.00
79085;BME280;68486;42.808;23.422;2023-12-29T03:17:31;26018.88;;;-145.14;100.00
79085;BME280;68486;42.808;23.422;2023-12-29T03:19:56;26179.44;;;-145.14;100.00
79085;BME280;68486;42.808;23.422;2023-12-29T03:22:21;25788.94;;;-145.14;100.00
79085;BME280;68486;42.808;23.422;2023-12-29T03:24:47;25348.91;;;-145.14;100.00
79085;BME280;68486;42.808;23.422;2023-12-29T03:27:12;25664.06;;;-145.14;100.00
79085;BME280;68486;42.808;23.422;2023-12-29T03:29:37;25360.78;;;-145.14;100.00
79085;BME280;68486;42.808;23.422;2023-12-29T03:32:03;25368.72;;;-145.14;100.00
79085;BME280;68486;42.808;23.422;2023-12-29T03:34:28;27184.66;;;-145.14;100.00
79085;BME280;68486;42.808;23.422;2023-12-29T03:36:54;28985.59;;;-145.14;100.00
79085;BME280;68486;42.808;23.422;2023-12-29T03:39:19;30453.91;;;-145.14;100.00
79085;BME280;68486;42.808;23.422;2023-12-29T03:41:45;31035.44;;;-145.14;100.00
79085;BME280;68486;42.808;23.422;2023-12-29T03:44:10;30973.91;;;-145.14;100.00
79085;BME280;68486;42.808;23.422;2023-12-29T03:46:36;31094.97;;;-145.14;100.00
79085;BME280;68486;42.808;23.422;2023-12-29T03:49:02;30823.06;;;-145.14;100.00
79085;BME280;68486;42.808;23.422;2023-12-29T03:51:28;30700.00;;;-145.14;100.00
79085;BME280;68486;42.808;23.422;2023-12-29T03:53:53;30457.88;;;-145.14;100.00
79085;BME280;68486;42.808;23.422;2023-12-29T03:56:19;29172.06;;;-145.14;100.00
79085;BME280;68486;42.808;23.422;2023-12-29T03:58:45;28914.16;;;-145.14;100.00
79085;BME280;68486;42.808;23.422;2023-12-29T04:01:11;28406.34;;;-145.14;100.00
79085;BME280;68486;42.808;23.422;2023-12-29T04:03:38;28148.50;;;-145.14;100.00
79085;BME280;68486;42.808;23.422;2023-12-29T04:06:04;27513.84;;;-145.14;100.00
79085;BME280;68486;42.808;23.422;2023-12-29T04:08:30;26829.75;;;-145.14;100.00
79085;BME280;68486;42.808;23.422;2023-12-29T04:10:56;25975.28;;;-145.14;100.00
79085;BME280;68486;42.808;23.422;2023-12-29T04:13:21;25935.63;;;-145.14;100.00
79085;BME280;68486;42.808;23.422;2023-12-29T04:15:47;26312.28;;;-145.14;100.00
79085;BME280;68486;42.808;23.422;2023-12-29T04:18:12;25975.28;;;-145.14;100.00
79085;BME280;68486;42.808;23.422;2023-12-29T04:20:38;25146.75;;;-145.14;100.00
79085;BME280;68486;42.808;23.422;2023-12-29T04:23:05;24033.06;;;-145.14;100.00
79085;BME280;68486;42.808;23.422;2023-12-29T04:25:31;23189.13;;;-145.14;100.00
79085;BME280;68486;42.808;23.422;2023-12-29T04:27:56;22410.72;;;-145.14;100.00
79085;BME280;68486;42.808;23.422;2023-12-29T04:30:21;22079.97;;;-145.14;100.00
79085;BME280;68486;42.808;23.422;2023-12-29T04:32:47;21398.78;;;-145.14;100.00
79085;BME280;68486;42.808;23.422;2023-12-29T04:35:12;21212.69;;;-145.14;100.00
79085;BME280;68486;42.808;23.422;2023-12-29T04:37:40;21511.66;;;-145.14;100.00
79085;BME280;68486;42.808;23.422;2023-12-29T04:40:06;22478.03;;;-145.14;100.00
79085;BME280;68486;42.808;23.422;2023-12-29T04:42:32;23482.31;;;-145.14;100.00
79085;BME280;68486;42.808;23.422;2023-12-29T04:44:57;23440.72;;;-145.14;100.00
79085;BME280;68486;42.808;23.422;2023-12-29T04:47:22;23228.75;;;-145.14;100.00
79085;BME280;68486;42.808;23.422;2023-12-29T04:49:48;23276.28;;;-145.14;100.00
79085;BME280;68486;42.808;23.422;2023-12-29T04:52:13;23052.44;;;-145.14;100.00
79085;BME280;68486;42.808;23.422;2023-12-29T04:54:38;23351.56;;;-145.14;100.00
79085;BME280;68486;42.808;23.422;2023-12-29T04:57:04;23462.50;;;-145.14;100.00
79085;BME280;68486;42.808;23.422;2023-12-29T04:59:29;23783.44;;;-145.14;100.00
79085;BME280;68486;42.808;23.422;2023-12-29T05:01:55;23161.38;;;-145.14;100.00
79085;BME280;68486;42.808;23.422;2023-12-29T05:04:20;23359.47;;;-145.14;100.00
79085;BME280;68486;42.808;23.422;2023-12-29T05:06:46;24100.44;;;-145.14;100.00
79085;BME280;68486;42.808;23.422;2023-12-29T05:09:11;26867.41;;;-145.14;100.00
79085;BME280;68486;42.808;23.422;2023-12-29T05:11:36;30025.25;;;-145.14;100.00
79085;BME280;68486;42.808;23.422;2023-12-29T05:14:02;30438.03;;;-145.14;100.00
79085;BME280;68486;42.808;23.422;2023-12-29T05:16:27;30576.97;;;-145.14;100.00
79085;BME280;68486;42.808;23.422;2023-12-29T05:18:52;30475.75;;;-145.14;100.00
79085;BME280;68486;42.808;23.422;2023-12-29T05:21:18;30293.16;;;-145.14;100.00
79085;BME280;68486;42.808;23.422;2023-12-29T05:23:45;30064.94;;;-145.14;100.00
79085;BME280;68486;42.808;23.422;2023-12-29T05:26:16;30144.31;;;-145.14;100.00
79085;BME280;68486;42.808;23.422;2023-12-29T05:28:42;29886.34;;;-145.14;100.00
79085;BME280;68486;42.808;23.422;2023-12-29T05:31:08;30315.00;;;-145.14;100.00
79085;BME280;68486;42.808;23.422;2023-12-29T05:33:34;30700.00;;;-145.14;100.00
79085;BME280;68486;42.808;23.422;2023-12-29T05:36:06;31426.47;;;-145.14;100.00
79085;BME280;68486;42.808;23.422;2023-12-29T05:38:32;32026.03;;;-145.14;100.00
79085;BME280;68486;42.808;23.422;2023-12-29T05:40:58;31887.03;;;-145.14;100.00
79085;BME280;68486;42.808;23.422;2023-12-29T05:43:23;31571.41;;;-145.14;100.00
79085;BME280;68486;42.808;23.422;2023-12-29T05:45:48;31756.00;;;-145.14;100.00
79085;BME280;68486;42.808;23.422;2023-12-29T05:48:14;31887.03;;;-145.14;100.00
79085;BME280;68486;42.808;23.422;2023-12-29T05:50:39;31871.16;;;-145.14;100.00
79085;BME280;68486;42.808;23.422;2023-12-29T05:53:05;31660.72;;;-145.14;100.00
79085;BME280;68486;42.808;23.422;2023-12-29T05:55:31;30958.03;;;-145.14;100.00
79085;BME280;68486;42.808;23.422;2023-12-29T05:57:56;29541.09;;;-145.14;100.00
79085;BME280;68486;42.808;23.422;2023-12-29T06:00:22;28090.97;;;-145.14;100.00
79085;BME280;68486;42.808;23.422;2023-12-29T06:02:47;27105.34;;;-145.14;100.00
79085;BME280;68486;42.808;23.422;2023-12-29T06:05:12;26542.25;;;-145.14;100.00
79085;BME280;68486;42.808;23.422;2023-12-29T06:07:38;26572.00;;;-145.14;100.00
79085;BME280;68486;42.808;23.422;2023-12-29T06:10:04;26756.38;;;-145.14;100.00
79085;BME280;68486;42.808;23.422;2023-12-29T06:12:30;27823.22;;;-145.14;100.00
79085;BME280;68486;42.808;23.422;2023-12-29T06:14:55;28529.31;;;-145.14;100.00
79085;BME280;68486;42.808;23.422;2023-12-29T06:17:21;30334.84;;;-145.14;100.00
79085;BME280;68486;42.808;23.422;2023-12-29T06:19:46;30989.78;;;-145.14;100.00
79085;BME280;68486;42.808;23.422;2023-12-29T06:22:12;30315.00;;;-145.14;100.00
79085;BME280;68486;42.808;23.422;2023-12-29T06:24:39;28648.34;;;-145.14;100.00
79085;BME280;68486;42.808;23.422;2023-12-29T06:27:04;27595.16;;;-145.14;100.00
79085;BME280;68486;42.808;23.422;2023-12-29T06:29:30;26764.31;;;-145.14;100.00
79085;BME280;68486;42.808;23.422;2023-12-29T06:31:55;26451.06;;;-145.14;100.00
79085;BME280;68486;42.808;23.422;2023-12-29T06:34:20;26496.66;;;-145.14;100.00
79085;BME280;68486;42.808;23.422;2023-12-29T06:36:46;26302.38;;;-145.14;100.00
79085;BME280;68486;42.808;23.422;2023-12-29T06:39:11;28854.66;;;-145.14;100.00
79085;BME280;68486;42.808;23.422;2023-12-29T06:41:37;30378.50;;;-145.14;100.00
79085;BME280;68486;42.808;23.422;2023-12-29T06:44:02;30817.09;;;-145.14;100.00
79085;BME280;68486;42.808;23.422;2023-12-29T06:46:27;30924.28;;;-145.14;100.00
79085;BME280;68486;42.808;23.422;2023-12-29T06:48:53;30886.56;;;-145.14;100.00
79085;BME280;68486;42.808;23.422;2023-12-29T06:51:18;30678.19;;;-145.14;100.00
79085;BME280;68486;42.808;23.422;2023-12-29T06:53:45;30715.88;;;-145.14;100.00
79085;BME280;68486;42.808;23.422;2023-12-29T06:56:17;30045.09;;;-145.14;100.00
79085;BME280;68486;42.808;23.422;2023-12-29T06:58:43;29723.66;;;-145.14;100.00
79085;BME280;68486;42.808;23.422;2023-12-29T07:01:09;29144.28;;;-145.14;100.00
79085;BME280;68486;42.808;23.422;2023-12-29T07:03:34;28693.97;;;-145.14;100.00
79085;BME280;68486;42.808;23.422;2023-12-29T07:06:00;27882.72;;;-145.14;100.00
79085;BME280;68486;42.808;23.422;2023-12-29T07:08:26;26413.38;;;-145.14;100.00
79085;BME280;68486;42.808;23.422;2023-12-29T07:10:52;24605.72;;;-145.14;100.00
79085;BME280;68486;42.808;23.422;2023-12-29T07:13:17;21889.88;;;-145.14;100.00
79085;BME280;68486;42.808;23.422;2023-12-29T07:15:44;17739.50;;;-145.14;100.00
79085;BME280;68486;42.808;23.422;2023-12-29T07:18:10;12992.91;;;-145.14;100.00
79085;BME280;68486;42.808;23.422;2023-12-29T07:20:35;8917.19;;;-145.14;100.00
79085;BME280;68486;42.808;23.422;2023-12-29T07:23:00;7117.63;;;-145.14;100.00
79085;BME280;68486;42.808;23.422;2023-12-29T07:25:26;6612.66;;;-145.14;100.00
79085;BME280;68486;42.808;23.422;2023-12-29T07:27:52;5855.28;;;-145.14;100.00
79085;BME280;68486;42.808;23.422;2023-12-29T07:30:18;5602.88;;;-145.14;100.00
79085;BME280;68486;42.808;23.422;2023-12-29T07:32:43;5350.47;;;-145.14;100.00
79085;BME280;68486;42.808;23.422;2023-12-29T07:35:09;4845.72;;;-145.14;100.00
79085;BME280;68486;42.808;23.422;2023-12-29T07:37:34;4845.72;;;-145.14;100.00
79085;BME280;68486;42.808;23.422;2023-12-29T07:39:59;4341.03;;;-145.14;100.00
79085;BME280;68486;42.808;23.422;2023-12-29T07:42:25;4341.03;;;-145.14;100.00
79085;BME280;68486;42.808;23.422;2023-12-29T07:44:50;3836.41;;;-145.14;100.00
79085;BME280;68486;42.808;23.422;2023-12-29T07:47:16;4088.72;;;-145.14;100.00
79085;BME280;68486;42.808;23.422;2023-12-29T07:49:42;4341.03;;;-145.14;100.00
79085;BME280;68486;42.808;23.422;2023-12-29T07:52:07;4341.03;;;-145.14;100.00
79085;BME280;68486;42.808;23.422;2023-12-29T07:54:33;4088.72;;;-145.14;100.00
79085;BME280;68486;42.808;23.422;2023-12-29T07:56:58;3079.59;;;-145.14;100.00
79085;BME280;68486;42.808;23.422;2023-12-29T07:59:24;3584.13;;;-145.14;100.00
79085;BME280;68486;42.808;23.422;2023-12-29T08:01:50;3331.84;;;-145.14;100.00
79085;BME280;68486;42.808;23.422;2023-12-29T08:04:15;3331.84;;;-145.14;100.00
79085;BME280;68486;42.808;23.422;2023-12-29T08:06:40;4593.38;;;-145.14;100.00
79085;BME280;68486;42.808;23.422;2023-12-29T08:09:06;5602.88;;;-145.14;100.00
79085;BME280;68486;42.808;23.422;2023-12-29T08:11:32;5855.28;;;-145.14;100.00
79085;BME280;68486;42.808;23.422;2023-12-29T08:13:58;5098.09;;;-145.14;100.00
79085;BME280;68486;42.808;23.422;2023-12-29T08:16:23;5855.28;;;-145.14;100.00
79085;BME280;68486;42.808;23.422;2023-12-29T08:18:49;7622.69;;;-145.14;100.00
79085;BME280;68486;42.808;23.422;2023-12-29T08:21:19;7622.69;;;-145.14;100.00
79085;BME280;68486;42.808;23.422;2023-12-29T08:23:46;8127.81;;;-145.14;100.00
79085;BME280;68486;42.808;23.422;2023-12-29T08:26:11;7875.22;;;-145.14;100.00
79085;BME280;68486;42.808;23.422;2023-12-29T08:28:37;9138.22;;;-145.14;100.00
79085;BME280;68486;42.808;23.422;2023-12-29T08:31:02;9643.53;;;-145.14;100.00
79085;BME280;68486;42.808;23.422;2023-12-29T08:33:27;8632.97;;;-145.14;100.00
79085;BME280;68486;42.808;23.422;2023-12-29T08:35:53;10148.91;;;-145.14;100.00
79085;BME280;68486;42.808;23.422;2023-12-29T08:38:18;11412.66;;;-145.14;100.00
79085;BME280;68486;42.808;23.422;2023-12-29T08:40:43;12171.09;;;-145.14;100.00
79085;BME280;68486;42.808;23.422;2023-12-29T08:43:09;11918.28;;;-145.14;100.00
79085;BME280;68486;42.808;23.422;2023-12-29T08:45:34;16471.72;;;-145.14;100.00
79085;BME280;68486;42.808;23.422;2023-12-29T08:48:00;17990.75;;;-145.14;100.00
79085;BME280;68486;42.808;23.422;2023-12-29T08:50:26;20017.00;;;-145.14;100.00
79085;BME280;68486;42.808;23.422;2023-12-29T08:52:51;20017.00;;;-145.14;100.00
79085;BME280;68486;42.808;23.422;2023-12-29T08:55:16;20523.75;;;-145.14;100.00
79085;BME280;68486;42.808;23.422;2023-12-29T08:57:42;19003.75;;;-145.14;100.00
79085;BME280;68486;42.808;23.422;2023-12-29T09:00:08;20523.75;;;-145.14;100.00
79085;BME280;68486;42.808;23.422;2023-12-29T09:02:35;18497.22;;;-145.14;100.00
79085;BME280;68486;42.808;23.422;2023-12-29T09:05:00;17231.16;;;-145.14;100.00
79085;BME280;68486;42.808;23.422;2023-12-29T09:07:25;17737.53;;;-145.14;100.00
79085;BME280;68486;42.808;23.422;2023-12-29T09:09:53;21537.41;;;-145.14;100.00
79085;BME280;68486;42.808;23.422;2023-12-29T09:12:18;25340.97;;;-145.14;100.00
79085;BME280;68486;42.808;23.422;2023-12-29T09:14:44;28894.34;;;-145.14;100.00
79085;BME280;68486;42.808;23.422;2023-12-29T09:17:09;32300.00;;;-145.14;100.00
79085;BME280;68486;42.808;23.422;2023-12-29T09:19:34;30771.47;;;-145.14;100.00
79085;BME280;68486;42.808;23.422;2023-12-29T09:22:00;34452.91;;;-145.14;100.00
79085;BME280;68486;42.808;23.422;2023-12-29T09:24:26;33686.16;;;-145.14;100.00
79085;BME280;68486;42.808;23.422;2023-12-29T09:26:51;34933.72;;;-145.14;100.00
79085;BME280;68486;42.808;23.422;2023-12-29T09:29:17;36841.56;;;-145.14;100.00
79085;BME280;68486;42.808;23.422;2023-12-29T09:31:43;37642.72;;;-145.14;100.00
79085;BME280;68486;42.808;23.422;2023-12-29T09:34:08;39577.75;;;-145.14;100.00
79085;BME280;68486;42.808;23.422;2023-12-29T09:36:33;41324.66;;;-145.14;100.00
79085;BME280;68486;42.808;23.422;2023-12-29T09:38:59;41826.22;;;-145.14;100.00
79085;BME280;68486;42.808;23.422;2023-12-29T09:41:25;42654.28;;;-145.14;100.00
79085;BME280;68486;42.808;23.422;2023-12-29T09:43:51;43596.03;;;-145.14;100.00
79085;BME280;68486;42.808;23.422;2023-12-29T09:46:17;44179.50;;;-145.14;100.00
79085;BME280;68486;42.808;23.422;2023-12-29T09:48:46;44828.78;;;-145.14;100.00
79085;BME280;68486;42.808;23.422;2023-12-29T09:51:15;44790.94;;;-145.14;100.00
79085;BME280;68486;42.808;23.422;2023-12-29T09:53:41;44794.94;;;-145.14;100.00
79085;BME280;68486;42.808;23.422;2023-12-29T09:56:08;45233.16;;;-145.14;100.00
79085;BME280;68486;42.808;23.422;2023-12-29T09:58:37;44466.28;;;-145.14;100.00
79085;BME280;68486;42.808;23.422;2023-12-29T10:01:04;43014.63;;;-145.14;100.00
79085;BME280;68486;42.808;23.422;2023-12-29T10:03:33;44900.50;;;-145.14;100.00
79085;BME280;68486;42.808;23.422;2023-12-29T10:06:00;43745.38;;;-145.14;100.00
79085;BME280;68486;42.808;23.422;2023-12-29T10:08:29;43671.69;;;-145.14;100.00
79085;BME280;68486;42.808;23.422;2023-12-29T10:10:57;44908.47;;;-145.14;100.00
79085;BME280;68486;42.808;23.422;2023-12-29T10:13:23;45338.75;;;-145.14;100.00
79085;BME280;68486;42.808;23.422;2023-12-29T10:16:08;43701.56;;;-145.14;100.00
79085;BME280;68486;42.808;23.422;2023-12-29T10:18:44;46356.84;;;-145.14;100.00
79085;BME280;68486;42.808;23.422;2023-12-29T10:21:29;46197.44;;;-145.14;100.00
79085;BME280;68486;42.808;23.422;2023-12-29T10:24:08;46789.28;;;-145.14;100.00
79085;BME280;68486;42.808;23.422;2023-12-29T10:26:35;46554.13;;;-145.14;100.00
79085;BME280;68486;42.808;23.422;2023-12-29T10:29:01;45296.91;;;-145.14;100.00
79085;BME280;68486;42.808;23.422;2023-12-29T10:31:27;46524.25;;;-145.14;100.00
79085;BME280;68486;42.808;23.422;2023-12-29T10:33:52;46406.66;;;-145.14;100.00
79085;BME280;68486;42.808;23.422;2023-12-29T10:36:18;46233.31;;;-145.14;100.00
79085;BME280;68486;42.808;23.422;2023-12-29T10:38:43;46259.22;;;-145.14;100.00
79085;BME280;68486;42.808;23.422;2023-12-29T10:41:17;45611.69;;;-145.14;100.00
79085;BME280;68486;42.808;23.422;2023-12-29T10:43:46;46205.41;;;-145.14;100.00
79085;BME280;68486;42.808;23.422;2023-12-29T10:46:17;45820.88;;;-145.14;100.00
79085;BME280;68486;42.808;23.422;2023-12-29T10:48:43;46619.91;;;-145.14;100.00
79085;BME280;68486;42.808;23.422;2023-12-29T10:51:08;46566.09;;;-145.14;100.00
79085;BME280;68486;42.808;23.422;2023-12-29T10:53:35;46693.63;;;-145.14;100.00
79085;BME280;68486;42.808;23.422;2023-12-29T10:56:01;46285.13;;;-145.14;100.00
79085;BME280;68486;42.808;23.422;2023-12-29T10:58:28;46480.41;;;-145.14;100.00
79085;BME280;68486;42.808;23.422;2023-12-29T11:00:58;46689.63;;;-145.14;100.00
79085;BME280;68486;42.808;23.422;2023-12-29T11:03:25;46853.06;;;-145.14;100.00
79085;BME280;68486;42.808;23.422;2023-12-29T11:05:58;46673.69;;;-145.14;100.00
79085;BME280;68486;42.808;23.422;2023-12-29T11:08:25;46745.44;;;-145.14;100.00
79085;BME280;68486;42.808;23.422;2023-12-29T11:10:50;45962.34;;;-145.14;100.00
79085;BME280;68486;42.808;23.422;2023-12-29T11:13:16;46601.97;;;-145.14;100.00
79085;BME280;68486;42.808;23.422;2023-12-29T11:15:43;46857.03;;;-145.14;100.00
79085;BME280;68486;42.808;23.422;2023-12-29T11:18:16;46729.50;;;-145.14;100.00
79085;BME280;68486;42.808;23.422;2023-12-29T11:20:44;46825.16;;;-145.14;100.00
79085;BME280;68486;42.808;23.422;2023-12-29T11:23:10;47104.16;;;-145.14;100.00
79085;BME280;68486;42.808;23.422;2023-12-29T11:25:38;47124.09;;;-145.14;100.00
79085;BME280;68486;42.808;23.422;2023-12-29T11:28:06;47259.63;;;-145.14;100.00
79085;BME280;68486;42.808;23.422;2023-12-29T11:30:33;46964.66;;;-145.14;100.00
79085;BME280;68486;42.808;23.422;2023-12-29T11:33:02;47132.06;;;-145.14;100.00
79085;BME280;68486;42.808;23.422;2023-12-29T11:35:48;47155.97;;;-145.14;100.00
79085;BME280;68486;42.808;23.422;2023-12-29T11:38:28;47227.72;;;-145.14;100.00
79085;BME280;68486;42.808;23.422;2023-12-29T11:43:39;46898.88;;;-145.14;100.00
79085;BME280;68486;42.808;23.422;2023-12-29T11:46:04;47351.31;;;-145.14;100.00
79085;BME280;68486;42.808;23.422;2023-12-29T11:48:57;47415.09;;;-145.14;100.00
79085;BME280;68486;42.808;23.422;2023-12-29T11:51:36;47233.72;;;-145.14;100.00
79085;BME280;68486;42.808;23.422;2023-12-29T11:54:02;47458.94;;;-145.14;100.00
79085;BME280;68486;42.808;23.422;2023-12-29T11:56:38;47454.94;;;-145.14;100.00
79085;BME280;68486;42.808;23.422;2023-12-29T12:01:40;47407.13;;;-145.14;100.00
79085;BME280;68486;42.808;23.422;2023-12-29T12:04:41;47339.34;;;-145.14;100.00
79085;BME280;68486;42.808;23.422;2023-12-29T12:07:08;47516.75;;;-145.14;100.00
79085;BME280;68486;42.808;23.422;2023-12-29T12:09:35;47454.94;;;-145.14;100.00
79085;BME280;68486;42.808;23.422;2023-12-29T12:12:05;47287.53;;;-145.14;100.00
79085;BME280;68486;42.808;23.422;2023-12-29T12:14:50;47468.91;;;-145.14;100.00
79085;BME280;68486;42.808;23.422;2023-12-29T12:17:32;47347.31;;;-145.14;100.00
79085;BME280;68486;42.808;23.422;2023-12-29T12:20:01;47233.72;;;-145.14;100.00
79085;BME280;68486;42.808;23.422;2023-12-29T12:22:30;47114.13;;;-145.14;100.00